Portada
METAR-TAF:

METAR-TAF

Aeropuertos :

Aeropuerto de Madrid-Cuatro Vientos

Madrid-Cuatro Vientos, España

latitud: 40-23N, longitud: 003-47W, altitud: 690 m

Observación

El informe se hizo hace 34 minutos, a las 17:00 UTC
Viento 6 kt con dirección variable
Temperatura 15°C
Humedad 31%
Presión 1023 hPa
Visibilidad 10 km o más
sin nubes por debajo de 1500 m y sin presencia de cumulonimbus.

METAR: LEVS 191700Z VRB06KT CAVOK 15/M02 Q1023

Hora: 18:34 (17:34 UTC)

Pronóstico

El informe se hizo hace 3 horas y 34 minutos, a las 14:00 UTC
Pronóstico válido del 19 a las 15 UTC al 19 a las 24 UTC
Viento 8 kt del norte
Visibilidad 10 km o más
sin nubes por debajo de 1500 m y sin presencia de cumulonimbus.
Temporalmente
del 19 a las 15 UTC al 19 a las 18 UTC
Viento 15 kt del norte con ráfagas de 28 kt

TAF: LEVS 191400Z 1915/1924 01008KT CAVOK TEMPO 1915/1918 01015G28KT

Observaciones y pronósticos meteorológicos de más de 4000 aeropuertos (mensajes METAR y TAF).

Los puntos amarillos y rojos representan las estaciones disponibles.

Ponga el ratón en el punto deseado para ver el nombre de la estación.

Haga clic para ver las observaciones y los pronósticos meteorológicos.

Para cambiar el mapa : haga clic en los botones verdes con una cruz de color negro para hacer un zoom, en el botón verde con un guión para alejar o en las flechas verdes para mapas adyacentes.


METAR-TAF: